createdAt,value
2018-12-01T00:04:59.064Z,76.90
2018-12-01T00:10:01.762Z,77.31
2018-12-01T00:15:07.877Z,77.15
2018-12-01T00:20:12.529Z,76.68
2018-12-01T00:25:15.182Z,76.98
2018-12-01T00:30:19.699Z,76.98
2018-12-01T00:35:22.327Z,77.14
2018-12-01T00:40:24.960Z,77.46
2018-12-01T00:45:27.592Z,77.34
2018-12-01T00:50:30.237Z,76.95
2018-12-01T00:55:32.869Z,77.17
2018-12-01T01:00:35.515Z,77.41
2018-12-01T01:05:38.123Z,77.87
2018-12-01T01:10:40.720Z,77.21
2018-12-01T01:15:43.408Z,77.17
2018-12-01T01:20:46.660Z,77.60
2018-12-01T01:25:49.256Z,77.54
2018-12-01T01:30:51.837Z,77.52
2018-12-01T01:35:54.436Z,77.84
2018-12-01T01:41:02.980Z,77.35
2018-12-01T01:46:05.642Z,77.82
2018-12-01T01:51:08.356Z,77.92
2018-12-01T01:56:10.981Z,77.61
2018-12-01T02:01:13.589Z,77.13
2018-12-01T02:06:16.185Z,77.61
2018-12-01T02:11:18.887Z,77.53
2018-12-01T02:16:21.525Z,77.88
2018-12-01T02:21:25.332Z,77.83
2018-12-01T02:26:28.013Z,77.69
2018-12-01T02:31:30.656Z,77.57
2018-12-01T02:36:33.257Z,77.64
2018-12-01T02:41:35.871Z,78.08
2018-12-01T02:47:04.098Z,78.15
2018-12-01T02:52:06.767Z,77.97
2018-12-01T02:57:09.377Z,78.45
2018-12-01T03:02:12.034Z,78.31
2018-12-01T03:07:14.668Z,77.92
2018-12-01T03:12:17.262Z,78.22
2018-12-01T03:17:19.892Z,78.59
2018-12-01T03:22:22.577Z,78.44
2018-12-01T03:27:29.832Z,78.05
2018-12-01T03:32:32.465Z,78.31
2018-12-01T03:37:35.125Z,78.39
2018-12-01T03:42:37.733Z,78.73
2018-12-01T03:47:40.409Z,78.46
2018-12-01T03:52:43.114Z,78.91
2018-12-01T03:57:45.734Z,78.24
2018-12-01T04:02:48.317Z,78.31
2018-12-01T04:07:50.929Z,78.18
2018-12-01T04:12:54.034Z,78.47
2018-12-01T04:17:56.707Z,78.73
2018-12-01T04:23:00.135Z,79.14
2018-12-01T04:28:02.790Z,79.11
2018-12-01T04:33:05.592Z,78.94
2018-12-01T04:38:08.205Z,78.59
2018-12-01T04:43:10.794Z,78.63
2018-12-01T04:48:13.429Z,78.86
2018-12-01T04:53:16.144Z,78.94
2018-12-01T04:58:18.752Z,78.79
2018-12-01T05:03:21.347Z,78.73
2018-12-01T05:08:23.957Z,79.04
2018-12-01T05:13:26.571Z,78.86
2018-12-01T05:18:29.194Z,79.44
2018-12-01T05:23:31.905Z,79.30
2018-12-01T05:28:34.464Z,78.97
2018-12-01T05:33:37.003Z,79.23
2018-12-01T05:38:39.685Z,79.10
2018-12-01T05:43:42.297Z,78.92
2018-12-01T05:48:44.980Z,79.22
2018-12-01T05:53:47.640Z,79.24
2018-12-01T05:58:50.395Z,78.87
2018-12-01T06:03:53.030Z,78.93
2018-12-01T06:08:55.615Z,78.74
2018-12-01T06:13:58.228Z,78.93
2018-12-01T06:19:00.864Z,78.86
2018-12-01T06:24:03.741Z,79.02
2018-12-01T06:29:06.372Z,79.45
2018-12-01T06:34:09.005Z,79.55
2018-12-01T06:39:11.630Z,79.35
2018-12-01T06:44:14.353Z,79.54
2018-12-01T06:49:17.004Z,79.47
2018-12-01T06:54:19.655Z,79.26
2018-12-01T06:59:22.252Z,79.35
2018-12-01T07:04:24.924Z,79.27
2018-12-01T07:09:27.624Z,79.43
2018-12-01T07:14:30.217Z,79.48
2018-12-01T07:19:32.780Z,79.36
2018-12-01T07:24:35.412Z,78.93
2018-12-01T07:29:38.112Z,79.37
2018-12-01T07:34:40.754Z,78.98
2018-12-01T07:39:43.423Z,79.44
2018-12-01T07:44:47.013Z,78.87
2018-12-01T07:49:48.651Z,78.84
2018-12-01T07:54:51.380Z,78.95
2018-12-01T07:59:54.160Z,78.85
2018-12-01T08:04:57.060Z,79.12
2018-12-01T08:09:59.809Z,79.40
2018-12-01T08:15:03.527Z,79.08
2018-12-01T08:20:08.689Z,79.16
2018-12-01T08:25:13.468Z,79.21
2018-12-01T08:30:20.037Z,79.40
2018-12-01T08:35:23.673Z,78.92
2018-12-01T08:40:28.008Z,78.91
2018-12-01T08:45:30.741Z,79.17
2018-12-01T08:50:33.229Z,78.79
2018-12-01T08:55:35.831Z,78.74
2018-12-01T09:00:41.035Z,78.25
2018-12-01T09:05:43.756Z,78.36
2018-12-01T09:10:46.389Z,78.41
2018-12-01T09:15:48.981Z,77.43
2018-12-01T09:20:51.609Z,76.87
2018-12-01T09:25:54.539Z,76.04
2018-12-01T09:30:57.158Z,74.62
2018-12-01T09:36:00.009Z,75.19
2018-12-01T09:41:02.678Z,73.93
2018-12-01T09:46:05.345Z,73.46
2018-12-01T09:51:08.273Z,72.99
2018-12-01T09:56:11.117Z,73.55
2018-12-01T10:01:13.730Z,72.58
2018-12-01T10:06:16.499Z,71.33
2018-12-01T10:11:19.104Z,70.21
2018-12-01T10:16:21.964Z,68.02
2018-12-01T10:21:24.577Z,68.34
2018-12-01T10:26:27.197Z,67.22
2018-12-01T10:31:29.877Z,67.06
2018-12-01T10:36:32.545Z,65.23
2018-12-01T10:41:35.237Z,64.02
2018-12-01T10:46:37.824Z,65.09
2018-12-01T10:51:40.443Z,65.83
2018-12-01T10:56:43.165Z,67.34
2018-12-01T11:01:51.499Z,67.41
2018-12-01T11:06:54.209Z,67.75
2018-12-01T11:11:56.843Z,68.29
2018-12-01T11:16:59.536Z,68.27
2018-12-01T11:22:02.189Z,68.43
2018-12-01T11:27:05.117Z,69.09
2018-12-01T11:32:07.778Z,69.27
2018-12-01T11:37:10.356Z,69.79
2018-12-01T11:42:12.969Z,70.24
2018-12-01T11:47:15.678Z,70.23
2018-12-01T11:52:18.335Z,70.17
2018-12-01T11:57:20.977Z,70.28
2018-12-01T12:02:23.726Z,70.52
2018-12-01T12:07:43.732Z,70.53
2018-12-01T12:12:46.532Z,70.85
2018-12-01T12:18:05.408Z,70.78
2018-12-01T12:23:08.082Z,70.64
2018-12-01T12:28:10.797Z,71.24
2018-12-01T12:33:13.393Z,70.83
2018-12-01T12:38:16.004Z,70.84
2018-12-01T12:43:18.581Z,70.96
2018-12-01T12:48:21.161Z,71.15
2018-12-01T12:53:23.776Z,71.59
2018-12-01T12:58:26.410Z,71.83
2018-12-01T13:03:29.004Z,72.24
2018-12-01T13:08:31.638Z,72.32
2018-12-01T13:13:34.279Z,72.32
2018-12-01T13:18:36.869Z,72.48
2018-12-01T13:23:39.504Z,72.25
2018-12-01T13:28:42.131Z,72.28
2018-12-01T13:33:45.119Z,72.83
2018-12-01T13:38:47.840Z,73.37
2018-12-01T13:43:50.452Z,73.24
2018-12-01T13:48:53.186Z,73.57
2018-12-01T13:53:55.847Z,73.43
2018-12-01T13:58:58.782Z,73.08
2018-12-01T14:04:01.407Z,73.18
2018-12-01T14:09:06.797Z,73.18
2018-12-01T14:14:09.740Z,73.15
2018-12-01T14:19:12.413Z,72.98
2018-12-01T14:24:15.213Z,73.15
2018-12-01T14:29:17.866Z,73.14
2018-12-01T14:34:20.594Z,73.42
2018-12-01T14:39:23.209Z,73.50
2018-12-01T14:44:25.810Z,73.65
2018-12-01T14:49:28.356Z,73.64
2018-12-01T14:54:31.004Z,73.67
2018-12-01T14:59:33.679Z,74.19
2018-12-01T15:04:36.481Z,74.49
2018-12-01T15:09:39.064Z,74.77
2018-12-01T15:14:41.698Z,75.09
2018-12-01T15:19:44.287Z,75.17
2018-12-01T15:24:46.831Z,75.41
2018-12-01T15:29:49.447Z,75.69
2018-12-01T15:34:52.189Z,75.24
2018-12-01T15:39:54.776Z,75.76
2018-12-01T15:44:57.398Z,76.23
2018-12-01T15:49:59.991Z,76.47
2018-12-01T15:55:02.641Z,76.43
2018-12-01T16:00:25.544Z,76.76
2018-12-01T16:05:28.167Z,76.65
2018-12-01T16:10:30.830Z,76.82
2018-12-01T16:15:35.913Z,76.74
2018-12-01T16:20:38.759Z,76.92
2018-12-01T16:25:41.781Z,76.88
2018-12-01T16:30:45.299Z,76.97
2018-12-01T16:35:49.162Z,77.18
2018-12-01T16:40:56.339Z,77.36
2018-12-01T16:45:59.268Z,77.38
2018-12-01T16:51:01.977Z,77.02
2018-12-01T16:56:04.945Z,77.31
2018-12-01T17:01:07.582Z,76.92
2018-12-01T17:06:15.528Z,76.78
2018-12-01T17:11:18.205Z,76.36
2018-12-01T17:16:20.983Z,76.52
2018-12-01T17:21:23.616Z,76.40
2018-12-01T17:26:26.181Z,76.12
2018-12-01T17:31:28.844Z,75.88
2018-12-01T17:36:31.442Z,76.09
2018-12-01T17:41:34.056Z,76.15
2018-12-01T17:46:36.801Z,76.16
2018-12-01T17:51:39.437Z,75.97
2018-12-01T17:56:42.184Z,76.30
2018-12-01T18:01:44.796Z,75.47
2018-12-01T18:06:47.424Z,75.58
2018-12-01T18:11:50.113Z,76.29
2018-12-01T18:16:53.642Z,75.65
2018-12-01T18:21:56.240Z,75.83
2018-12-01T18:26:58.940Z,75.81
2018-12-01T18:32:01.535Z,75.77
2018-12-01T18:37:04.136Z,75.73
2018-12-01T18:42:06.760Z,75.59
2018-12-01T18:47:09.326Z,75.65
2018-12-01T18:52:11.927Z,75.52
2018-12-01T18:57:14.597Z,75.82
2018-12-01T19:02:17.288Z,75.27
2018-12-01T19:07:19.863Z,75.52
2018-12-01T19:12:22.469Z,75.16
2018-12-01T19:17:25.116Z,74.82
2018-12-01T19:22:27.841Z,74.33
2018-12-01T19:27:30.582Z,74.40
2018-12-01T19:32:33.522Z,74.23
2018-12-01T19:37:36.285Z,74.28
2018-12-01T19:42:38.919Z,74.47
2018-12-01T19:47:41.532Z,74.48
2018-12-01T19:52:44.268Z,74.10
2018-12-01T19:57:46.888Z,73.95
2018-12-01T20:02:49.810Z,74.62
2018-12-01T20:07:52.596Z,73.88
2018-12-01T20:12:59.541Z,73.98
2018-12-01T20:18:07.040Z,74.34
2018-12-01T20:23:09.796Z,74.26
2018-12-01T20:28:12.444Z,74.11
2018-12-01T20:33:15.926Z,74.00
2018-12-01T20:38:41.688Z,74.13
2018-12-01T20:43:44.262Z,74.04
2018-12-01T20:48:46.940Z,74.11
2018-12-01T20:53:49.958Z,74.17
2018-12-01T20:58:52.609Z,74.48
2018-12-01T21:03:55.234Z,74.08
2018-12-01T21:08:57.873Z,74.13
2018-12-01T21:14:00.479Z,73.95
2018-12-01T21:19:03.152Z,74.16
2018-12-01T21:24:06.588Z,74.10
2018-12-01T21:29:09.215Z,74.00
2018-12-01T21:34:11.752Z,74.22
2018-12-01T21:39:14.496Z,74.44
2018-12-01T21:44:17.108Z,74.64
2018-12-01T21:49:19.732Z,74.44
2018-12-01T21:54:22.328Z,74.40
2018-12-01T21:59:24.873Z,74.59
2018-12-01T22:04:27.484Z,74.50
2018-12-01T22:09:30.060Z,74.67
2018-12-01T22:14:32.681Z,74.82
2018-12-01T22:19:35.280Z,74.92
2018-12-01T22:24:37.933Z,75.33
2018-12-01T22:29:40.609Z,75.23
2018-12-01T22:34:43.203Z,75.70
2018-12-01T22:39:45.877Z,75.31
2018-12-01T22:44:48.593Z,75.59
2018-12-01T22:49:51.270Z,75.65
2018-12-01T22:54:53.980Z,75.55
2018-12-01T22:59:56.693Z,75.75
2018-12-01T23:04:59.360Z,75.09
2018-12-01T23:10:02.004Z,75.35
2018-12-01T23:15:06.805Z,75.54
2018-12-01T23:20:19.351Z,75.56
2018-12-01T23:25:22.068Z,75.26
2018-12-01T23:30:27.805Z,75.67
2018-12-01T23:35:31.047Z,75.11
2018-12-01T23:40:33.710Z,75.47
2018-12-01T23:45:38.744Z,74.99
2018-12-01T23:50:45.121Z,75.25
2018-12-01T23:55:47.776Z,75.21
